createdAt,value
2022-09-15T00:01:10.352Z,3.40
2022-09-15T00:03:38.287Z,3.10
2022-09-15T00:06:06.398Z,3.20
2022-09-15T00:08:33.719Z,3.70
2022-09-15T00:11:10.144Z,3.45
2022-09-15T00:13:38.684Z,3.70
2022-09-15T00:16:06.803Z,3.83
2022-09-15T00:18:34.926Z,3.80
2022-09-15T00:21:18.328Z,4.25
2022-09-15T00:23:46.551Z,3.92
2022-09-15T00:26:16.818Z,4.05
2022-09-15T00:28:44.513Z,3.90
2022-09-15T00:31:14.574Z,3.28
2022-09-15T00:33:42.142Z,3.80
2022-09-15T00:36:11.288Z,3.75
2022-09-15T00:38:39.572Z,4.00
2022-09-15T00:41:08.586Z,3.67
2022-09-15T00:43:47.978Z,4.07
2022-09-15T00:46:19.985Z,3.67
2022-09-15T00:49:10.417Z,4.50
2022-09-15T00:51:57.737Z,4.62
2022-09-15T00:54:32.798Z,5.32
2022-09-15T00:57:02.826Z,4.40
2022-09-15T00:59:32.212Z,4.90
2022-09-15T01:02:30.537Z,4.22
2022-09-15T01:04:58.884Z,4.62
2022-09-15T01:07:37.854Z,4.20
2022-09-15T01:10:15.445Z,3.95
2022-09-15T01:12:43.223Z,4.10
2022-09-15T01:15:10.797Z,3.55
2022-09-15T01:20:54.768Z,2.87
2022-09-15T01:23:40.360Z,3.12
2022-09-15T01:26:43.253Z,3.40
2022-09-15T01:29:38.189Z,3.60
2022-09-15T01:35:08.370Z,4.20
2022-09-15T01:37:39.674Z,4.70
2022-09-15T01:40:09.774Z,4.15
2022-09-15T01:42:39.092Z,4.22
2022-09-15T01:45:14.291Z,4.15
2022-09-15T01:47:41.940Z,4.82
2022-09-15T01:50:11.615Z,4.82
2022-09-15T01:52:41.582Z,4.37
2022-09-15T01:55:15.027Z,4.82
2022-09-15T01:57:42.804Z,5.00
2022-09-15T02:00:11.130Z,5.05
2022-09-15T02:02:42.987Z,4.68
2022-09-15T02:05:33.974Z,2.22
2022-09-15T02:08:08.749Z,2.05
2022-09-15T02:13:19.518Z,1.58
2022-09-15T02:15:51.749Z,1.67
2022-09-15T02:18:24.312Z,1.58
2022-09-15T02:20:54.855Z,1.60
2022-09-15T02:23:28.775Z,1.95
2022-09-15T02:26:05.049Z,1.53
2022-09-15T02:28:35.764Z,1.60
2022-09-15T02:31:05.835Z,1.62
2022-09-15T02:33:37.502Z,1.33
2022-09-15T02:36:05.190Z,1.50
2022-09-15T02:38:37.330Z,1.40
2022-09-15T02:41:05.822Z,1.52
2022-09-15T02:43:34.088Z,1.40
2022-09-15T02:46:01.468Z,1.50
2022-09-15T02:48:28.778Z,1.65
2022-09-15T02:50:56.363Z,1.67
2022-09-15T02:53:23.815Z,1.50
2022-09-15T02:55:51.135Z,1.42
2022-09-15T02:58:18.790Z,1.62
2022-09-15T03:00:46.142Z,1.50
2022-09-15T03:03:13.511Z,1.48
2022-09-15T03:05:41.059Z,1.70
2022-09-15T03:08:08.401Z,2.08
2022-09-15T03:10:35.719Z,1.92
2022-09-15T03:13:03.365Z,2.20
2022-09-15T03:15:30.730Z,2.35
2022-09-15T03:17:58.048Z,1.95
2022-09-15T03:20:30.417Z,2.10
2022-09-15T03:22:57.897Z,2.05
2022-09-15T03:25:26.961Z,2.17
2022-09-15T03:27:54.816Z,2.20
2022-09-15T03:30:22.257Z,2.35
2022-09-15T03:32:49.623Z,2.15
2022-09-15T03:35:17.233Z,2.20
2022-09-15T03:37:44.580Z,2.03
2022-09-15T03:40:11.979Z,2.00
2022-09-15T03:42:39.630Z,1.92
2022-09-15T03:45:07.439Z,1.98
2022-09-15T03:47:34.780Z,2.03
2022-09-15T03:50:02.493Z,2.40
2022-09-15T03:52:31.933Z,2.10
2022-09-15T03:54:59.425Z,2.12
2022-09-15T03:57:27.029Z,2.20
2022-09-15T03:59:54.368Z,2.20
2022-09-15T04:02:21.752Z,2.17
2022-09-15T04:04:49.491Z,2.33
2022-09-15T04:07:16.913Z,2.37
2022-09-15T04:09:44.251Z,2.17
2022-09-15T04:12:11.859Z,2.30
2022-09-15T04:14:39.172Z,2.30
2022-09-15T04:17:06.582Z,2.37
2022-09-15T04:19:34.157Z,2.10
2022-09-15T04:22:01.448Z,2.20
2022-09-15T04:24:28.780Z,2.20
2022-09-15T04:26:56.387Z,1.92
2022-09-15T04:29:24.745Z,1.87
2022-09-15T04:31:53.041Z,1.98
2022-09-15T04:34:20.671Z,2.20
2022-09-15T04:36:48.204Z,2.37
2022-09-15T04:39:15.542Z,2.17
2022-09-15T04:41:43.132Z,2.25
2022-09-15T04:44:10.469Z,2.40
2022-09-15T04:46:37.892Z,2.53
2022-09-15T04:49:05.541Z,2.17
2022-09-15T04:51:32.857Z,2.53
2022-09-15T04:54:00.235Z,2.72
2022-09-15T04:56:27.957Z,2.60
2022-09-15T04:59:03.227Z,2.42
2022-09-15T05:01:34.114Z,2.42
2022-09-15T05:04:03.999Z,2.65
2022-09-15T05:06:32.230Z,2.87
2022-09-15T05:08:59.720Z,3.30
2022-09-15T05:11:28.305Z,2.70
2022-09-15T05:13:55.952Z,2.97
2022-09-15T05:16:25.181Z,2.87
2022-09-15T05:18:54.500Z,2.90
2022-09-15T05:21:23.766Z,3.20
2022-09-15T05:23:54.175Z,3.03
2022-09-15T05:26:23.611Z,3.45
2022-09-15T05:28:51.202Z,3.20
2022-09-15T05:31:24.979Z,3.55
2022-09-15T05:33:53.099Z,3.28
2022-09-15T05:36:23.403Z,3.08
2022-09-15T05:38:51.578Z,3.17
2022-09-15T05:41:19.920Z,3.60
2022-09-15T05:43:48.415Z,3.65
2022-09-15T05:46:18.335Z,3.10
2022-09-15T05:48:46.436Z,3.58
2022-09-15T05:51:14.559Z,3.03
2022-09-15T05:53:42.035Z,6.30
2022-09-15T05:56:14.237Z,3.40
2022-09-15T05:58:43.368Z,3.35
2022-09-15T06:01:23.090Z,3.40
2022-09-15T06:03:51.345Z,3.45
2022-09-15T06:06:18.955Z,3.70
2022-09-15T06:08:51.745Z,3.17
2022-09-15T06:11:24.731Z,3.05
2022-09-15T06:13:52.310Z,3.37
2022-09-15T06:16:22.080Z,2.95
2022-09-15T06:18:51.078Z,3.62
2022-09-15T06:21:20.913Z,3.40
2022-09-15T06:23:56.261Z,3.22
2022-09-15T06:26:23.896Z,3.28
2022-09-15T06:29:01.880Z,3.40
2022-09-15T06:31:31.638Z,3.33
2022-09-15T06:33:59.825Z,3.10
2022-09-15T06:36:28.833Z,3.30
2022-09-15T06:38:57.007Z,3.30
2022-09-15T06:41:24.716Z,3.10
2022-09-15T06:43:53.146Z,2.87
2022-09-15T06:46:23.415Z,3.00
2022-09-15T06:48:51.996Z,3.08
2022-09-15T06:51:22.355Z,3.10
2022-09-15T06:53:50.222Z,3.10
2022-09-15T06:56:19.876Z,3.22
2022-09-15T06:58:49.302Z,3.17
2022-09-15T07:01:25.770Z,2.45
2022-09-15T07:03:53.194Z,3.33
2022-09-15T07:06:21.085Z,4.00
2022-09-15T07:08:49.789Z,3.60
2022-09-15T07:11:18.211Z,3.08
2022-09-15T07:13:47.315Z,2.60
2022-09-15T07:16:15.440Z,3.30
2022-09-15T07:18:43.650Z,2.80
2022-09-15T07:21:16.732Z,2.30
2022-09-15T07:23:44.589Z,2.62
2022-09-15T07:26:14.481Z,2.75
2022-09-15T07:28:44.256Z,2.75
2022-09-15T07:31:14.824Z,2.90
2022-09-15T07:33:42.432Z,2.60
2022-09-15T07:36:10.238Z,2.42
2022-09-15T07:38:45.827Z,2.20
2022-09-15T07:41:21.444Z,2.28
2022-09-15T07:43:50.498Z,2.20
2022-09-15T07:46:18.938Z,2.30
2022-09-15T07:48:47.371Z,2.15
2022-09-15T07:51:15.676Z,2.70
2022-09-15T07:53:44.263Z,2.00
2022-09-15T07:56:11.988Z,2.60
2022-09-15T07:58:39.814Z,2.00
2022-09-15T08:01:11.248Z,1.80
2022-09-15T08:03:42.824Z,2.10
2022-09-15T08:06:11.014Z,2.03
2022-09-15T08:08:39.107Z,2.03
2022-09-15T08:11:18.435Z,2.28
2022-09-15T08:13:50.993Z,2.12
2022-09-15T08:16:21.892Z,1.87
2022-09-15T08:18:49.947Z,1.60
2022-09-15T08:21:20.335Z,2.05
2022-09-15T08:23:52.887Z,1.80
2022-09-15T08:26:20.641Z,1.58
2022-09-15T08:28:49.074Z,1.48
2022-09-15T08:31:17.377Z,2.00
2022-09-15T08:33:49.816Z,1.65
2022-09-15T08:36:17.851Z,1.30
2022-09-15T08:38:46.105Z,1.60
2022-09-15T08:41:23.794Z,1.50
2022-09-15T08:44:07.865Z,1.20
2022-09-15T08:46:41.221Z,1.40
2022-09-15T08:49:51.441Z,1.35
2022-09-15T08:52:35.690Z,1.30
2022-09-15T08:55:13.818Z,1.25
2022-09-15T08:57:41.194Z,1.33
2022-09-15T09:00:15.133Z,1.30
2022-09-15T09:02:58.708Z,1.35
2022-09-15T09:05:34.595Z,1.00
2022-09-15T09:08:23.090Z,1.20
2022-09-15T09:10:55.925Z,1.20
2022-09-15T09:13:35.204Z,1.17
2022-09-15T09:16:18.082Z,1.52
2022-09-15T09:19:16.576Z,1.33
2022-09-15T09:21:47.653Z,1.10
2022-09-15T09:24:31.440Z,1.52
2022-09-15T09:26:59.010Z,1.20
2022-09-15T09:29:33.495Z,1.15
2022-09-15T09:32:01.903Z,1.33
2022-09-15T09:34:35.499Z,1.12
2022-09-15T09:37:15.447Z,1.12
2022-09-15T09:39:42.815Z,1.00
2022-09-15T09:42:15.031Z,1.05
2022-09-15T09:44:42.581Z,1.30
2022-09-15T09:47:10.202Z,1.10
2022-09-15T09:49:43.972Z,1.25
2022-09-15T09:54:39.589Z,0.90
2022-09-15T09:57:12.769Z,1.00
2022-09-15T09:59:46.074Z,1.17
2022-09-15T10:02:27.206Z,1.20
2022-09-15T10:05:16.006Z,1.00
2022-09-15T10:07:43.888Z,1.00
2022-09-15T10:10:24.922Z,1.10
2022-09-15T10:12:56.029Z,1.00
2022-09-15T10:15:25.708Z,1.15
2022-09-15T10:17:54.091Z,0.98
2022-09-15T10:20:28.234Z,1.10
2022-09-15T10:23:05.126Z,1.23
2022-09-15T10:25:57.580Z,1.50
2022-09-15T10:28:25.895Z,1.10
2022-09-15T10:31:10.715Z,1.20
2022-09-15T10:33:44.910Z,1.73
2022-09-15T10:36:15.046Z,1.70
2022-09-15T10:38:45.817Z,1.23
2022-09-15T10:41:27.119Z,1.50
2022-09-15T10:44:09.748Z,1.27
2022-09-15T10:46:48.898Z,1.15
2022-09-15T10:49:34.752Z,1.23
2022-09-15T10:52:18.379Z,1.20
2022-09-15T10:55:02.014Z,1.20
2022-09-15T10:58:06.511Z,1.17
2022-09-15T11:00:50.348Z,1.58
2022-09-15T11:03:27.483Z,1.37
2022-09-15T11:06:13.298Z,1.48
2022-09-15T11:09:16.197Z,1.75
2022-09-15T11:11:56.132Z,1.80
2022-09-15T11:14:29.573Z,2.33
2022-09-15T11:17:34.532Z,1.83
2022-09-15T11:20:18.079Z,2.20
2022-09-15T11:22:55.148Z,2.00
2022-09-15T11:25:25.332Z,2.00
2022-09-15T11:28:01.313Z,2.00
2022-09-15T11:30:50.669Z,1.83
2022-09-15T11:33:21.818Z,2.22
2022-09-15T11:36:31.344Z,1.90
2022-09-15T11:39:12.561Z,2.28
2022-09-15T11:41:56.397Z,1.80
2022-09-15T11:44:37.667Z,1.87
2022-09-15T11:47:05.025Z,2.20
2022-09-15T11:49:39.137Z,2.20
2022-09-15T11:52:17.191Z,2.15
2022-09-15T11:54:48.741Z,2.05
2022-09-15T11:57:25.634Z,2.70
2022-09-15T12:00:15.384Z,2.50
2022-09-15T12:03:23.385Z,1.62
2022-09-15T12:06:10.028Z,1.83
2022-09-15T12:08:43.542Z,2.03
2022-09-15T12:11:18.745Z,2.43
2022-09-15T12:13:46.631Z,1.83
2022-09-15T12:16:14.856Z,2.28
2022-09-15T12:19:18.608Z,1.85
2022-09-15T12:21:51.900Z,1.90
2022-09-15T12:24:25.504Z,1.80
2022-09-15T12:26:53.122Z,2.33
2022-09-15T12:29:26.450Z,2.17
2022-09-15T12:32:19.727Z,1.75
2022-09-15T12:34:57.708Z,2.45
2022-09-15T12:37:29.182Z,2.30
2022-09-15T12:39:56.681Z,2.12
2022-09-15T12:42:26.357Z,2.40
2022-09-15T12:44:56.737Z,2.35
2022-09-15T12:47:34.058Z,2.20
2022-09-15T12:50:16.571Z,2.50
2022-09-15T12:53:12.677Z,1.60
2022-09-15T12:55:49.592Z,1.30
2022-09-15T12:58:20.000Z,1.30
2022-09-15T13:01:14.280Z,1.10
2022-09-15T13:03:37.878Z,1.10
2022-09-15T13:06:10.912Z,0.90
2022-09-15T13:08:38.140Z,0.90
2022-09-15T13:11:12.665Z,1.27
2022-09-15T13:14:11.547Z,1.10
2022-09-15T13:16:43.759Z,1.30
2022-09-15T13:19:25.676Z,1.12
2022-09-15T13:21:59.169Z,1.30
2022-09-15T13:24:41.854Z,1.80
2022-09-15T13:27:10.018Z,1.90
2022-09-15T13:29:44.642Z,1.83
2022-09-15T13:32:28.040Z,1.80
2022-09-15T13:35:20.941Z,1.92
2022-09-15T13:38:25.058Z,1.95
2022-09-15T13:40:58.345Z,2.20
2022-09-15T13:43:48.235Z,2.30
2022-09-15T13:46:34.146Z,2.35
2022-09-15T13:49:01.696Z,2.50
2022-09-15T13:51:30.114Z,2.10
2022-09-15T13:54:01.380Z,2.10
2022-09-15T13:56:38.945Z,1.92
2022-09-15T13:59:14.117Z,1.83
2022-09-15T14:01:43.102Z,1.75
2022-09-15T14:04:17.014Z,1.95
2022-09-15T14:06:46.695Z,1.87
2022-09-15T14:09:16.893Z,1.70
2022-09-15T14:11:48.001Z,1.60
2022-09-15T14:14:27.839Z,1.80
2022-09-15T14:16:56.485Z,2.08
2022-09-15T14:19:34.158Z,2.10
2022-09-15T14:22:03.661Z,2.10
2022-09-15T14:24:32.523Z,2.50
2022-09-15T14:27:03.375Z,2.12
2022-09-15T14:29:31.167Z,2.10
2022-09-15T14:32:01.938Z,2.30
2022-09-15T14:34:32.191Z,2.72
2022-09-15T14:37:06.622Z,2.60
2022-09-15T14:39:37.354Z,2.62
2022-09-15T14:42:21.803Z,2.75
2022-09-15T14:47:40.200Z,2.97
2022-09-15T14:50:17.530Z,2.55
2022-09-15T14:53:04.070Z,3.08
2022-09-15T14:55:34.303Z,2.60
2022-09-15T14:58:06.874Z,2.78
2022-09-15T15:00:37.879Z,2.47
2022-09-15T15:03:28.501Z,2.70
2022-09-15T15:06:12.800Z,3.00
2022-09-15T15:09:03.250Z,3.05
2022-09-15T15:11:32.025Z,2.80
2022-09-15T15:13:59.926Z,2.80
2022-09-15T15:16:29.327Z,4.20
2022-09-15T15:18:57.486Z,4.90
2022-09-15T15:21:41.662Z,2.92
2022-09-15T15:24:20.703Z,3.10
2022-09-15T15:26:50.097Z,2.60
2022-09-15T15:29:45.883Z,2.55
2022-09-15T15:32:15.678Z,2.22
2022-09-15T15:34:50.618Z,2.87
2022-09-15T15:37:25.354Z,2.90
2022-09-15T15:42:20.531Z,3.00
2022-09-15T15:45:12.979Z,2.87
2022-09-15T15:47:40.547Z,2.90
2022-09-15T15:50:20.924Z,2.70
2022-09-15T15:52:49.645Z,2.37
2022-09-15T15:55:20.668Z,2.50
2022-09-15T15:57:50.476Z,2.40
2022-09-15T16:00:21.297Z,2.17
2022-09-15T16:02:50.781Z,2.20
2022-09-15T16:05:19.423Z,2.55
2022-09-15T16:07:47.880Z,2.22
2022-09-15T16:10:17.600Z,1.90
2022-09-15T16:12:44.916Z,2.45
2022-09-15T16:15:18.209Z,2.20
2022-09-15T16:17:47.015Z,2.03
2022-09-15T16:20:16.110Z,1.62
2022-09-15T16:22:43.871Z,2.53
2022-09-15T16:25:18.546Z,2.10
2022-09-15T16:30:13.343Z,2.00
2022-09-15T16:32:41.294Z,1.85
2022-09-15T16:35:31.714Z,2.17
2022-09-15T16:37:59.322Z,2.40
2022-09-15T16:40:26.742Z,2.62
2022-09-15T16:42:54.249Z,2.80
2022-09-15T16:45:26.320Z,2.85
2022-09-15T16:47:53.660Z,2.85
2022-09-15T16:50:21.035Z,2.53
2022-09-15T16:52:48.649Z,2.28
2022-09-15T16:55:31.262Z,2.65
2022-09-15T16:57:59.948Z,2.37
2022-09-15T17:00:29.065Z,2.60
2022-09-15T17:02:56.738Z,2.70
2022-09-15T17:05:29.269Z,2.28
2022-09-15T17:07:56.797Z,2.62
2022-09-15T17:10:25.064Z,2.70
2022-09-15T17:12:52.795Z,3.10
2022-09-15T17:15:27.030Z,3.20
2022-09-15T17:20:23.145Z,3.10
2022-09-15T17:22:51.494Z,6.65
2022-09-15T17:25:30.301Z,4.90
2022-09-15T17:27:58.700Z,4.40
2022-09-15T17:30:29.743Z,4.32
2022-09-15T17:33:04.137Z,3.95
2022-09-15T17:35:34.398Z,4.78
2022-09-15T17:38:02.886Z,4.57
2022-09-15T17:40:30.575Z,4.75
2022-09-15T17:42:58.482Z,4.70
2022-09-15T17:45:27.423Z,3.83
2022-09-15T17:47:54.900Z,4.03
2022-09-15T17:50:25.336Z,3.65
2022-09-15T17:52:52.964Z,3.40
2022-09-15T17:55:22.226Z,3.55
2022-09-15T17:57:50.142Z,3.92
2022-09-15T18:00:18.929Z,3.50
2022-09-15T18:02:51.982Z,3.60
2022-09-15T18:05:25.192Z,3.90
2022-09-15T18:07:59.539Z,3.90
2022-09-15T18:10:28.557Z,3.70
2022-09-15T18:12:57.140Z,4.32
2022-09-15T18:15:27.167Z,4.12
2022-09-15T18:17:56.948Z,4.12
2022-09-15T18:20:29.364Z,3.97
2022-09-15T18:22:57.218Z,4.15
2022-09-15T18:25:31.252Z,4.40
2022-09-15T18:27:59.897Z,4.07
2022-09-15T18:30:31.246Z,3.95
2022-09-15T18:32:59.513Z,3.97
2022-09-15T18:35:27.254Z,3.83
2022-09-15T18:37:59.255Z,3.80
2022-09-15T18:40:27.935Z,3.50
2022-09-15T18:42:56.729Z,3.78
2022-09-15T18:45:24.296Z,3.25
2022-09-15T18:47:52.630Z,3.33
2022-09-15T18:50:22.691Z,2.90
2022-09-15T18:52:50.125Z,3.70
2022-09-15T18:55:20.160Z,3.28
2022-09-15T18:57:48.890Z,3.20
2022-09-15T19:00:24.549Z,3.12
2022-09-15T19:03:02.668Z,3.30
2022-09-15T19:05:30.476Z,2.70
2022-09-15T19:07:58.640Z,2.55
2022-09-15T19:10:27.276Z,2.95
2022-09-15T19:12:55.003Z,2.87
2022-09-15T19:15:24.083Z,2.92
2022-09-15T19:17:51.955Z,2.80
2022-09-15T19:20:19.585Z,2.40
2022-09-15T19:22:47.827Z,2.80
2022-09-15T19:25:15.659Z,3.05
2022-09-15T19:27:43.140Z,3.03
2022-09-15T19:30:12.172Z,2.97
2022-09-15T19:32:40.805Z,2.75
2022-09-15T19:35:09.298Z,2.90
2022-09-15T19:37:38.784Z,3.20
2022-09-15T19:40:10.167Z,3.25
2022-09-15T19:42:39.118Z,3.00
2022-09-15T19:45:07.658Z,2.92
2022-09-15T19:47:35.647Z,3.15
2022-09-15T19:50:05.687Z,2.92
2022-09-15T19:52:33.288Z,2.40
2022-09-15T19:55:00.668Z,2.62
2022-09-15T19:57:28.377Z,2.10
2022-09-15T19:59:55.751Z,2.10
2022-09-15T20:02:23.102Z,2.17
2022-09-15T20:05:09.061Z,1.87
2022-09-15T20:07:36.473Z,2.42
2022-09-15T20:10:04.978Z,2.22
2022-09-15T20:12:32.240Z,2.30
2022-09-15T20:14:59.510Z,2.00
2022-09-15T20:17:27.782Z,2.12
2022-09-15T20:19:55.173Z,2.67
2022-09-15T20:22:22.885Z,2.17
2022-09-15T20:24:51.552Z,2.05
2022-09-15T20:27:18.907Z,2.83
2022-09-15T20:29:46.204Z,2.55
2022-09-15T20:34:59.180Z,2.20
2022-09-15T20:37:27.325Z,2.20
2022-09-15T20:39:55.189Z,2.03
2022-09-15T20:42:22.681Z,2.78
2022-09-15T20:44:50.244Z,2.30
2022-09-15T20:47:17.803Z,2.47
2022-09-15T20:49:45.104Z,2.70
2022-09-15T20:52:12.699Z,2.50
2022-09-15T20:54:40.609Z,2.40
2022-09-15T20:57:08.898Z,2.42
2022-09-15T20:59:37.164Z,2.12
2022-09-15T21:02:06.044Z,2.40
2022-09-15T21:04:33.751Z,2.50
2022-09-15T21:07:01.348Z,2.58
2022-09-15T21:09:28.823Z,2.70
2022-09-15T21:11:56.199Z,2.60
2022-09-15T21:14:24.472Z,2.83
2022-09-15T21:16:51.829Z,3.00
2022-09-15T21:19:19.192Z,2.83
2022-09-15T21:21:46.766Z,3.15
2022-09-15T21:24:14.075Z,3.30
2022-09-15T21:27:00.387Z,3.35
2022-09-15T21:29:28.762Z,3.85
2022-09-15T21:31:56.246Z,3.60
2022-09-15T21:34:24.008Z,3.60
2022-09-15T21:36:53.538Z,3.40
2022-09-15T21:39:21.407Z,3.70
2022-09-15T21:41:48.757Z,3.80
2022-09-15T21:44:16.396Z,3.80
2022-09-15T21:46:44.967Z,4.03
2022-09-15T21:49:12.271Z,3.95
2022-09-15T21:51:39.933Z,4.20
2022-09-15T21:54:07.250Z,4.62
2022-09-15T21:56:34.577Z,4.80
2022-09-15T21:59:02.906Z,4.93
2022-09-15T22:01:31.890Z,4.50
2022-09-15T22:04:01.288Z,4.60
2022-09-15T22:06:34.296Z,5.37
2022-09-15T22:09:05.223Z,5.37
2022-09-15T22:11:33.364Z,5.22
2022-09-15T22:14:02.825Z,5.35
2022-09-15T22:16:30.566Z,5.03
2022-09-15T22:18:58.003Z,5.05
2022-09-15T22:21:28.383Z,5.65
2022-09-15T22:23:56.923Z,5.28
2022-09-15T22:26:26.787Z,5.57
2022-09-15T22:28:54.679Z,5.32
2022-09-15T22:31:23.631Z,5.60
2022-09-15T22:33:51.581Z,5.35
2022-09-15T22:36:25.141Z,5.45
2022-09-15T22:38:56.210Z,5.90
2022-09-15T22:41:25.838Z,5.62
2022-09-15T22:43:53.153Z,6.15
2022-09-15T22:46:21.002Z,6.00
2022-09-15T22:48:48.434Z,6.20
2022-09-15T22:51:16.012Z,6.20
2022-09-15T22:53:43.631Z,5.60
2022-09-15T22:56:17.152Z,6.40
2022-09-15T22:58:44.698Z,6.07
2022-09-15T23:01:18.203Z,6.70
2022-09-15T23:03:52.861Z,7.13
2022-09-15T23:06:21.131Z,6.18
2022-09-15T23:08:57.245Z,6.70
2022-09-15T23:11:25.742Z,6.47
2022-09-15T23:13:53.946Z,7.43
2022-09-15T23:16:23.121Z,7.00
2022-09-15T23:18:51.034Z,7.00
2022-09-15T23:21:18.922Z,7.32
2022-09-15T23:23:48.862Z,7.28
2022-09-15T23:26:18.511Z,6.80
2022-09-15T23:28:46.253Z,6.47
2022-09-15T23:31:13.817Z,7.47
2022-09-15T23:33:41.657Z,7.70
2022-09-15T23:36:12.079Z,6.62
2022-09-15T23:38:40.798Z,6.55
2022-09-15T23:41:08.726Z,6.70
2022-09-15T23:43:36.592Z,6.37
2022-09-15T23:46:04.417Z,6.75
2022-09-15T23:48:32.503Z,6.32
2022-09-15T23:51:00.382Z,5.90
2022-09-15T23:53:28.248Z,5.62
2022-09-15T23:55:55.621Z,5.22
2022-09-15T23:58:23.251Z,5.43
